首页
METAR-TAF:

METAR-TAF

机场 :

巴甫洛達爾, 哈萨克斯坦

纬度: 52-11-42N, 经度: 077-04-26E, 海拔: 125米

当前天气观测

该预报发布于16分钟前的10:30 UTC
风速12节,风向南转南东
温度 31°C
湿度 38%
气压 1004 hPa
能见度10公里或以上
少量云层高于4600英尺

METAR: UASP 231030Z 15006MPS 9999 FEW046 31/15 Q1004 NOSIG RMK QFE742/0989

时间: 16:46 (10:46 UTC)

预报

该预报发布于2小时和46分钟前的08:00 UTC
预报有效从23日的 09点(UTC)到 23日的 18点(UTC)
风速12节,风向南转南东
能见度10公里或以上
多云层高于3000英尺, 积雨云.
短暂存在
从 23日的 09点(UTC)到 23日的 15点(UTC)
风速12节,风向,有时为25节阵风
能見度: 3100
雷暴, 小雨
成为
从 23日的 15点(UTC)到 23日的 16点(UTC)
风速12节,风向

TAF: UASP 230800Z 2309/2318 15006MPS 9999 BKN030CB TEMPO 2309/2315 18006G13MPS 3100 -TSRA BECMG 2315/2316 19006MPS

超过4000个机场的气象观测和天气预报(METAR&TAF报告)。

可查询的气象台以黄色和红色小点在地图上表示。

将鼠标移到小点上方,可查看气象台名称。

然后点击查看天气观测和预报。

如需切换地图:点击带黑十字的绿色按钮放大地图;点击带横线的绿色按钮缩小地图;或者点击绿色箭头查看邻近地区的地图。


METAR-TAF: